createdAt,value
2016-07-05T00:02:05.214Z,47.4
2016-07-05T00:07:05.602Z,47.3
2016-07-05T00:12:05.278Z,47.3
2016-07-05T00:17:07.541Z,47.2
2016-07-05T00:22:05.101Z,47.2
2016-07-05T00:27:05.469Z,47.2
2016-07-05T00:32:04.979Z,47.3
2016-07-05T00:37:04.817Z,47.2
2016-07-05T00:42:05.367Z,47.3
2016-07-05T00:47:04.544Z,47.2
2016-07-05T00:52:04.805Z,47.2
2016-07-05T00:57:04.495Z,47.1
2016-07-05T01:02:05.500Z,47.0
2016-07-05T01:07:05.031Z,46.9
2016-07-05T01:12:06.271Z,46.8
2016-07-05T01:17:07.568Z,46.7
2016-07-05T01:22:05.556Z,46.6
2016-07-05T01:27:05.701Z,46.7
2016-07-05T01:32:05.521Z,46.9
2016-07-05T01:37:05.477Z,47.1
2016-07-05T01:42:05.693Z,46.9
2016-07-05T01:47:05.159Z,47.0
2016-07-05T01:52:05.132Z,46.9
2016-07-05T01:57:04.707Z,46.7
2016-07-05T02:02:04.880Z,46.7
2016-07-05T02:07:05.407Z,46.7
2016-07-05T02:12:05.537Z,46.6
2016-07-05T02:17:06.216Z,46.4
2016-07-05T02:22:05.566Z,46.4
2016-07-05T02:27:04.703Z,46.4
2016-07-05T02:32:05.073Z,46.5
2016-07-05T02:37:05.264Z,46.5
2016-07-05T02:42:05.227Z,46.4
2016-07-05T02:47:13.062Z,46.4
2016-07-05T02:52:05.509Z,46.2
2016-07-05T02:57:05.873Z,46.3
2016-07-05T03:02:28.051Z,46.3
2016-07-05T03:07:04.893Z,46.5
2016-07-05T03:12:04.565Z,46.5
2016-07-05T03:17:29.378Z,46.6
2016-07-05T03:22:04.926Z,46.6
2016-07-05T03:27:05.092Z,46.7
2016-07-05T03:32:29.560Z,46.7
2016-07-05T03:37:04.354Z,46.8
2016-07-05T03:42:04.841Z,46.6
2016-07-05T03:47:32.969Z,46.6
2016-07-05T03:52:04.972Z,46.5
2016-07-05T03:57:04.236Z,46.4
2016-07-05T04:02:33.606Z,45.7
2016-07-05T04:07:04.977Z,46.4
2016-07-05T04:12:03.961Z,46.2
2016-07-05T04:17:32.261Z,46.2
2016-07-05T04:22:05.620Z,46.2
2016-07-05T04:27:05.324Z,46.2
2016-07-05T04:32:31.280Z,46.2
2016-07-05T04:37:05.638Z,46.0
2016-07-05T04:42:05.234Z,46.0
2016-07-05T04:47:28.886Z,46.2
2016-07-05T04:52:05.469Z,46.3
2016-07-05T04:57:04.614Z,46.0
2016-07-05T05:02:30.652Z,45.5
2016-07-05T05:07:05.530Z,45.4
2016-07-05T05:12:04.842Z,45.2
2016-07-05T05:17:29.462Z,45.3
2016-07-05T05:22:04.915Z,45.7
2016-07-05T05:27:05.161Z,45.7
2016-07-05T05:32:30.118Z,45.7
2016-07-05T05:37:05.095Z,45.6
2016-07-05T05:42:04.930Z,45.7
2016-07-05T05:47:32.058Z,46.0
2016-07-05T05:52:05.319Z,45.8
2016-07-05T05:57:05.377Z,45.3
2016-07-05T06:02:32.413Z,45.3
2016-07-05T06:07:05.125Z,45.7
2016-07-05T06:12:05.068Z,45.6
2016-07-05T06:17:34.999Z,45.6
2016-07-05T06:22:04.818Z,45.5
2016-07-05T06:27:05.627Z,45.7
2016-07-05T06:32:41.543Z,45.7
2016-07-05T06:37:05.581Z,46.0
2016-07-05T06:42:05.339Z,45.9
2016-07-05T06:47:36.326Z,45.8
2016-07-05T06:52:04.961Z,45.8
2016-07-05T06:57:04.752Z,45.3
2016-07-05T07:02:41.491Z,45.3
2016-07-05T07:07:05.153Z,45.2
2016-07-05T07:12:04.946Z,45.8
2016-07-05T07:17:33.798Z,46.1
2016-07-05T07:22:05.474Z,45.8
2016-07-05T07:27:05.135Z,45.8
2016-07-05T07:32:36.405Z,46.0
2016-07-05T07:37:05.727Z,45.7
2016-07-05T07:42:05.066Z,45.1
2016-07-05T07:47:34.662Z,45.1
2016-07-05T07:52:04.429Z,44.9
2016-07-05T07:57:04.868Z,44.9
2016-07-05T08:02:32.722Z,45.1
2016-07-05T08:07:04.975Z,44.9
2016-07-05T08:12:04.976Z,45.5
2016-07-05T08:17:39.603Z,45.8
2016-07-05T08:22:04.516Z,45.3
2016-07-05T08:32:30.997Z,45.6
2016-07-05T08:37:04.408Z,46.4
2016-07-05T08:42:04.859Z,46.7
2016-07-05T08:47:31.315Z,46.9
2016-07-05T08:52:05.335Z,46.8
2016-07-05T08:57:05.076Z,46.4
2016-07-05T09:02:40.136Z,45.7
2016-07-05T09:07:05.481Z,45.6
2016-07-05T09:12:04.726Z,44.6
2016-07-05T09:17:34.555Z,45.3
2016-07-05T09:22:05.046Z,45.4
2016-07-05T09:27:04.938Z,45.9
2016-07-05T09:32:34.292Z,45.0
2016-07-05T09:37:05.841Z,44.8
2016-07-05T09:42:04.740Z,44.8
2016-07-05T09:47:38.900Z,45.8
2016-07-05T09:52:05.306Z,45.4
2016-07-05T09:57:05.372Z,45.3
2016-07-05T10:02:38.787Z,45.1
2016-07-05T10:07:05.546Z,44.7
2016-07-05T10:12:04.966Z,45.2
2016-07-05T10:17:35.492Z,45.4
2016-07-05T10:22:05.083Z,45.3
2016-07-05T10:27:04.754Z,44.6
2016-07-05T10:32:29.525Z,45.6
2016-07-05T10:37:05.628Z,45.6
2016-07-05T10:42:05.360Z,45.7
2016-07-05T10:47:31.481Z,46.6
2016-07-05T10:52:04.951Z,46.6
2016-07-05T10:57:05.160Z,46.2
2016-07-05T11:02:32.612Z,45.5
2016-07-05T11:07:05.588Z,45.2
2016-07-05T11:12:04.701Z,45.3
2016-07-05T11:17:31.552Z,45.7
2016-07-05T11:22:05.413Z,45.2
2016-07-05T11:27:04.685Z,45.2
2016-07-05T11:32:34.280Z,45.6
2016-07-05T11:37:05.185Z,45.6
2016-07-05T11:42:04.889Z,44.8
2016-07-05T11:47:44.961Z,44.7
2016-07-05T11:52:05.170Z,45.2
2016-07-05T11:57:05.422Z,44.5
2016-07-05T12:02:28.772Z,45.0
2016-07-05T12:07:04.941Z,45.4
2016-07-05T12:12:04.554Z,45.3
2016-07-05T12:17:35.233Z,45.2
2016-07-05T12:22:04.724Z,45.5
2016-07-05T12:27:04.729Z,45.5
2016-07-05T12:32:31.822Z,44.7
2016-07-05T12:37:05.836Z,44.4
2016-07-05T12:42:04.798Z,44.8
2016-07-05T12:47:28.201Z,45.5
2016-07-05T12:52:05.378Z,45.5
2016-07-05T12:57:05.466Z,45.4
2016-07-05T13:02:30.282Z,45.3
2016-07-05T13:07:05.526Z,45.5
2016-07-05T13:12:05.706Z,45.4
2016-07-05T13:17:35.560Z,45.2
2016-07-05T13:22:05.185Z,44.8
2016-07-05T13:27:05.040Z,44.5
2016-07-05T13:32:30.982Z,44.5
2016-07-05T13:37:05.138Z,44.4
2016-07-05T13:42:05.120Z,44.4
2016-07-05T13:47:33.889Z,44.5
2016-07-05T13:52:04.930Z,44.3
2016-07-05T13:57:05.303Z,44.1
2016-07-05T20:02:19.944Z,44.0
2016-07-05T20:07:05.747Z,44.2
2016-07-05T20:12:05.186Z,44.1
2016-07-05T20:17:09.144Z,44.2
2016-07-05T20:22:05.379Z,44.2
2016-07-05T20:27:05.939Z,44.2
2016-07-05T20:32:05.517Z,44.2
2016-07-05T20:37:04.543Z,44.0
2016-07-05T20:42:04.615Z,44.0
2016-07-05T20:47:05.496Z,44.2
2016-07-05T20:52:04.675Z,44.2
2016-07-05T20:57:05.373Z,44.3
2016-07-05T21:02:05.701Z,44.2
2016-07-05T21:07:05.667Z,44.3
2016-07-05T21:12:05.523Z,44.3
2016-07-05T21:17:07.906Z,44.2
2016-07-05T21:22:05.311Z,44.2
2016-07-05T21:27:04.813Z,44.3
2016-07-05T21:32:05.583Z,44.4
2016-07-05T21:37:05.195Z,44.3
2016-07-05T21:42:04.454Z,44.4
2016-07-05T21:47:05.783Z,44.5
2016-07-05T21:52:05.218Z,44.4
2016-07-05T21:57:04.530Z,44.6
2016-07-05T22:02:05.253Z,44.6
2016-07-05T22:07:05.113Z,44.6
2016-07-05T22:12:05.337Z,44.7
2016-07-05T22:17:07.516Z,44.9
2016-07-05T22:22:05.343Z,44.6
2016-07-05T22:27:05.626Z,44.7
2016-07-05T22:32:05.529Z,44.8
2016-07-05T22:37:05.444Z,44.8
2016-07-05T22:42:05.582Z,44.7
2016-07-05T22:47:05.896Z,44.8
2016-07-05T22:52:05.057Z,44.7
2016-07-05T22:57:05.670Z,44.9
2016-07-05T23:02:06.026Z,45.0
2016-07-05T23:07:05.722Z,44.9
2016-07-05T23:12:05.540Z,44.9
2016-07-05T23:17:06.253Z,44.9
2016-07-05T23:22:05.829Z,44.6
2016-07-05T23:27:04.791Z,44.6
2016-07-05T23:32:05.492Z,44.8
2016-07-05T23:37:05.533Z,45.0
2016-07-05T23:42:04.619Z,44.9
2016-07-05T23:47:05.822Z,44.9
2016-07-05T23:52:05.027Z,45.0
2016-07-05T23:57:05.220Z,45.0
